Información del aeropuerto LGHI

Información de pista
Pista 01 Longitud 4957 ft Anchura 98 ft Elevación 8 ft Umbral 460 ft Rumbo 10
Pista 19 Longitud 4957 ft Anchura 98 ft Elevación 9 ft Umbral 227 ft Rumbo 190
Frecuencias del aeropuerto
Tipo A/G Nombre RDO Frecuencia 563.7 MHZ
Tipo APP Nombre APP Frecuencia 124 MHZ
Tipo TWR Nombre TWR Frecuencia 122.7 MHZ
Radioayudas del aeropuerto
Tipo NDB Nombre Chios Frecuencia 299 KHZ
Tipo VOR-DME Nombre Chios Frecuencia 110800 KHZ
Tipo VOR-DME Nombre Mesta Frecuencia 117600 KHZ
METAR y NOTAM del aeropuerto
ADDS - METARS form results

(0123 UTC 23 September 2023)
Data provider http://aviationweather.gov/metar/data/
 
METAR text: LGHI 230050Z VRB01KT CAVOK 18/14 Q1014
Conditions at: LGHI (CHIOS AIRPORT , GR) observed 0050 UTC 23 September 2023
Temperature: 18.0°C (64°F)
Dewpoint: 14.0°C (57°F) [RH = 77%]
Pressure (altimeter): 29.94 inches Hg (1014.0 mb)
Winds: variable direction winds at 1 MPH (1 knots; 0.5 m/s)
Visibility: 6 or more miles (10+ km)
Ceiling: ceiling and visibility are OK
Clouds: unknown
Weather: no significant weather observed at this time

Forecast for: LGHI (CHIOS AIRPORT , GR)
Text: TAF LGHI 222300Z 2300/2309 34013KT CAVOK
Forecast period: 0000 to 0900 UTC 23 September 2023
Forecast type: FROM: standard forecast or significant change
Winds: from the NNW (340 degrees) at 15 MPH (13 knots; 6.7 m/s)
Visibility: 6 or more miles (10+ km)
Ceiling: unknown
Clouds: missing
Weather: NSW  (no significant weather)